17:29
Airports
Links
Donate
Help keep this website running!
PayPal
Bitcoin
METAR
VDSR 211700Z 18001KT 9000 SCT015 SCT040 26/26 Q1006
Current Weather Conditions at VDSR
VFR 17:00:00 21-09-17
Altimeter:29.70 hg
Temp:26.0°c 79°f
Dew point:26.0°c 79°f
Wind:1 knots, 1.2 mph, 1 m/s, from 180°
Visibility:5.59 statute miles
4000(SCT) Scattered
1500(SCT) Scattered
Past METAR reports
VFR 16:30:00 21-09-17
Altimeter:29.70 hg
Temp:26.0°c 79°f
Dew point:26.0°c 79°f
Wind:1 knots, 1.2 mph, 1 m/s, from 180°
Visibility:5.59 statute miles
4000(SCT) Scattered
1500(SCT) Scattered
VDSR 211630Z 18001KT 9000 SCT015 SCT040 26/26 Q1006
VFR 16:00:00 21-09-17
Altimeter:29.70 hg
Temp:26.0°c 79°f
Dew point:26.0°c 79°f
Wind:0 knots, 0 mph, 0 m/s,
Variable direction
Visibility:5.59 statute miles
4000(SCT) Scattered
1500(SCT) Scattered
VDSR 211600Z 00000KT 9000 SCT015 SCT040 26/26 Q1006
VFR 15:30:00 21-09-17
Altimeter:29.70 hg
Temp:26.0°c 79°f
Dew point:26.0°c 79°f
Wind:3 knots, 3.5 mph, 2 m/s,
Variable direction
Visibility:5.59 statute miles
4000(SCT) Scattered
1500(SCT) Scattered
VDSR 211530Z VRB03KT 9000 SCT015 SCT040 26/26 Q1006
VFR 15:00:00 21-09-17
Altimeter:29.70 hg
Temp:26.0°c 79°f
Dew point:26.0°c 79°f
Wind:2 knots, 2.3 mph, 1 m/s,
Variable direction
Visibility:5.59 statute miles
4000(SCT) Scattered
1500(SCT) Scattered
VDSR 211500Z VRB02KT 9000 SCT015 SCT040 26/26 Q1006
VFR 14:30:00 21-09-17
Altimeter:29.70 hg
Temp:26.0°c 79°f
Dew point:26.0°c 79°f
Wind:2 knots, 2.3 mph, 1 m/s,
Variable direction
Visibility:5.59 statute miles
4000(SCT) Scattered
1500(SCT) Scattered
VDSR 211430Z VRB02KT 9000 SCT015 SCT040 26/26 Q1006
VFR 14:00:00 21-09-17
Altimeter:29.68 hg
Temp:25.0°c 77°f
Dew point:25.0°c 77°f
Wind:2 knots, 2.3 mph, 1 m/s,
Variable direction
Visibility:5.59 statute miles
4000(SCT) Scattered
1500(SCT) Scattered
VDSR 211400Z VRB02KT 9000 SCT015 SCT040 25/25 Q1005
TAF
TAF VDSR 211100Z 2112/2206 09005KT 9999 SCT015 SCT040 TEMPO 2113/2118 5000 TSRA SCT015 FEW017CB BKN040
Forecast at VDSR
12:00 21-09-17 to 06:00 22-09-17
Wind:5 Knots from 90°
Visibility:6.21 statute miles
1500SCT Scattered
4000SCT Scattered
TEMPO 13:00 21-09-17 to 18:00 21-09-17
TSRA
Visibility:3.11 statute miles
1500SCT Scattered
1700FEW A few
4000BKN Broken